createdAt,value
2018-04-27T00:04:29.903Z,99.99
2018-04-27T00:14:26.936Z,99.99
2018-04-27T00:24:23.712Z,99.99
2018-04-27T00:34:18.550Z,99.99
2018-04-27T00:44:16.701Z,99.99
2018-04-27T00:54:14.016Z,99.99
2018-04-27T01:04:09.377Z,99.99
2018-04-27T01:14:07.464Z,99.99
2018-04-27T01:24:03.862Z,99.99
2018-04-27T01:33:58.759Z,99.99
2018-04-27T01:43:55.887Z,99.99
2018-04-27T01:53:53.585Z,99.99
2018-04-27T02:03:50.102Z,99.99
2018-04-27T02:13:46.506Z,99.99
2018-04-27T02:23:43.671Z,99.99
2018-04-27T02:33:42.353Z,99.99
2018-04-27T02:43:38.285Z,99.99
2018-04-27T02:53:35.306Z,99.99
2018-04-27T03:03:31.120Z,99.99
2018-04-27T03:13:29.078Z,99.99
2018-04-27T03:23:27.042Z,99.99
2018-04-27T03:33:22.387Z,99.99
2018-04-27T03:43:20.272Z,99.99
2018-04-27T03:53:16.072Z,99.99
2018-04-27T04:03:08.174Z,99.99
2018-04-27T04:13:06.029Z,99.99
2018-04-27T04:23:03.376Z,99.99
2018-04-27T04:32:58.718Z,99.99
2018-04-27T04:42:56.883Z,99.99
2018-04-27T04:52:54.449Z,99.99
2018-04-27T05:02:50.545Z,99.99
2018-04-27T05:12:47.426Z,99.99
2018-04-27T05:22:44.637Z,99.99
2018-04-27T05:32:42.744Z,99.99
2018-04-27T05:42:40.728Z,99.99
2018-04-27T05:52:34.245Z,99.99
2018-04-27T06:02:32.902Z,99.99
2018-04-27T06:12:29.749Z,99.99
2018-04-27T06:22:26.453Z,99.16
2018-04-27T06:32:24.546Z,98.35
2018-04-27T06:42:20.914Z,99.17
2018-04-27T06:52:16.543Z,96.78
2018-04-27T07:02:15.095Z,96.12
2018-04-27T07:12:11.517Z,99.99
2018-04-27T07:22:06.955Z,97.45
2018-04-27T07:32:05.258Z,98.57
2018-04-27T07:42:01.634Z,96.60
2018-04-27T07:51:58.447Z,92.70
2018-04-27T08:01:55.815Z,96.00
2018-04-27T08:11:54.421Z,93.38
2018-04-27T08:21:52.370Z,91.55
2018-04-27T08:31:50.818Z,92.72
2018-04-27T08:41:46.956Z,88.84
2018-04-27T08:51:42.285Z,90.31
2018-04-27T09:01:40.877Z,87.76
2018-04-27T09:11:39.882Z,84.69
2018-04-27T09:21:37.470Z,77.64
2018-04-27T09:31:34.438Z,66.47
2018-04-27T09:41:10.148Z,68.63
2018-04-27T09:51:06.357Z,69.85
2018-04-27T10:00:45.766Z,67.00
2018-04-27T10:10:21.077Z,68.07
2018-04-27T10:19:45.954Z,64.46
2018-04-27T10:29:22.903Z,67.32
2018-04-27T10:39:00.705Z,67.36
2018-04-27T10:48:37.959Z,62.82
2018-04-27T10:58:19.592Z,64.98
2018-04-27T11:07:47.527Z,65.14
2018-04-27T11:17:24.902Z,65.99
2018-04-27T11:27:02.958Z,64.92
2018-04-27T11:36:45.088Z,56.91
2018-04-27T11:46:15.350Z,59.16
2018-04-27T11:55:55.998Z,58.47
2018-04-27T12:05:24.923Z,59.33
2018-04-27T12:15:06.054Z,61.71
2018-04-27T12:24:35.879Z,59.50
2018-04-27T12:34:12.600Z,62.77
2018-04-27T12:43:49.629Z,61.29
2018-04-27T12:53:27.546Z,63.18
2018-04-27T13:03:03.928Z,63.71
2018-04-27T13:12:39.105Z,62.95
2018-04-27T13:22:16.773Z,62.66
2018-04-27T13:31:56.178Z,62.43
2018-04-27T13:41:31.682Z,60.62
2018-04-27T13:51:18.111Z,59.61
2018-04-27T14:00:44.284Z,65.14
2018-04-27T14:10:20.906Z,64.60
2018-04-27T14:19:59.379Z,56.11
2018-04-27T14:29:41.905Z,60.71
2018-04-27T14:39:20.899Z,62.14
2018-04-27T14:48:49.468Z,68.45
2018-04-27T14:58:19.925Z,68.21
2018-04-27T15:07:48.145Z,68.08
2018-04-27T15:17:44.314Z,67.15
2018-04-27T15:27:33.522Z,65.78
2018-04-27T15:37:28.445Z,65.25
2018-04-27T15:47:21.350Z,66.28
2018-04-27T15:57:15.609Z,70.59
2018-04-27T16:07:10.522Z,65.48
2018-04-27T16:16:57.944Z,67.85
2018-04-27T16:26:55.758Z,65.38
2018-04-27T16:36:45.819Z,69.66
2018-04-27T16:46:34.522Z,74.01
2018-04-27T16:56:28.459Z,80.05
2018-04-27T17:06:23.535Z,79.44
2018-04-27T17:16:15.634Z,80.79
2018-04-27T17:26:07.060Z,85.30
2018-04-27T17:35:59.255Z,84.74
2018-04-27T17:45:47.052Z,85.72
2018-04-27T17:55:42.989Z,88.68
2018-04-27T18:05:38.785Z,90.19
2018-04-27T18:15:31.402Z,91.58
2018-04-27T18:25:27.353Z,91.12
2018-04-27T18:35:20.968Z,93.79
2018-04-27T18:45:14.271Z,96.62
2018-04-27T18:55:07.035Z,97.67
2018-04-27T19:05:04.181Z,97.27
2018-04-27T19:15:00.210Z,99.13
2018-04-27T19:24:51.677Z,99.24
2018-04-27T19:34:48.653Z,99.69
2018-04-27T19:44:42.624Z,99.99
2018-04-27T19:54:36.898Z,99.94
2018-04-27T20:04:31.087Z,99.99
2018-04-27T20:14:25.974Z,99.99
2018-04-27T20:24:22.187Z,99.99
2018-04-27T20:34:17.537Z,99.99
2018-04-27T20:44:13.444Z,99.99
2018-04-27T20:54:09.602Z,99.99
2018-04-27T21:03:57.089Z,99.99
2018-04-27T21:13:53.061Z,99.99
2018-04-27T21:23:47.893Z,99.99
2018-04-27T21:33:46.349Z,99.99
2018-04-27T21:43:44.206Z,99.99
2018-04-27T21:53:40.143Z,99.99
2018-04-27T22:03:37.635Z,99.99
2018-04-27T22:13:33.490Z,99.99
2018-04-27T22:23:29.920Z,99.99
2018-04-27T22:33:26.658Z,99.99
2018-04-27T22:43:22.432Z,99.99
2018-04-27T22:53:19.842Z,99.99
2018-04-27T23:03:15.263Z,99.99
2018-04-27T23:13:11.070Z,99.99
2018-04-27T23:23:07.231Z,99.99
2018-04-27T23:33:02.578Z,99.99
2018-04-27T23:42:58.644Z,99.99
2018-04-27T23:52:55.058Z,99.99
